La Mata - P.N. Sant Llorenç del Munt i l'Obac





Hora UTC 13:30
Temperatura 8.3 ºC
Humitat 77.4 %
Pressió 1023.0 hPa
Pluja 0.0 mm
Velocitat vent 15.2 km/h
Direcció vent SE
Radiació solar 275.6 W/m²

Dades diàries 2021-03-01



Hora UTC (hivern +1h; estiu +2h)
Temperatura (ºC) Humitat (%) Pressió (hPa) Velocitat vent (km/h) Precipitació (mm) Radiació solar (W/m²)
Hora UTC Aire Humitat Pressió Vel. Dir. Vel. Max Dir. Intent. màx 5 min. Rad. Sol.
00:05 4.7 90.3 1023.1 12.6 E 12.6 E 0.0 0.1
00:10 4.8 91.2 1023.2 11.2 ESE 21.2 ESE 0.0 0.1
00:15 4.9 91.6 1023.2 14.8 ESE 21.5 E 0.0 0.1
00:20 4.9 91.9 1023.2 13.3 ESE 27.2 SE 0.0 0.1
00:25 4.9 92.1 1023.2 12.0 ESE 20.5 ESE 0.0 0.1
00:30 4.9 92.1 1023.1 11.4 SE 21.2 SSE 0.0 0.1
00:35 5.0 92.3 1023.2 13.6 ESE 27.9 ESE 0.0 0.1
00:40 5.0 92.5 1023.2 8.1 ESE 13.1 E 0.0 0.1
00:45 5.1 92.9 1023.2 10.6 ESE 21.2 SE 0.0 0.2
00:50 5.1 93.1 1023.2 11.4 ESE 21.9 ENE 0.0 0.1
00:55 5.1 93.3 1023.3 9.7 ESE 17.6 SSE 0.0 0.1
01:00 5.0 93.4 1023.2 12.4 ESE 21.2 ESE 0.0 0.1
01:05 5.0 93.6 1023.3 11.9 ESE 23.6 SE 0.0 0.1
01:10 4.9 93.8 1023.3 10.8 ESE 20.1 E 0.0 0.1
01:15 4.9 93.9 1023.3 9.7 ESE 16.6 SE 0.0 0.1
01:20 4.9 94.0 1023.3 10.0 ESE 16.6 SE 0.0 0.1
01:25 4.8 94.0 1023.3 8.8 E 15.2 E 0.0 0.1
01:30 4.8 94.0 1023.3 10.5 E 20.8 ESE 0.0 0.1
01:35 4.7 93.9 1023.3 11.9 ESE 21.9 SE 0.0 0.1
01:40 4.7 93.8 1023.4 8.1 E 16.9 ESE 0.0 0.1
01:45 4.7 93.6 1023.3 8.8 ESE 18.7 ENE 0.0 0.1
01:50 4.7 93.4 1023.3 9.4 E 18.4 ESE 0.0 0.1
01:55 4.7 93.3 1023.3 8.7 ESE 20.1 ESE 0.0 0.1
02:00 4.6 93.1 1023.4 10.7 ESE 18.4 E 0.0 0.1
02:05 4.6 93.1 1023.4 7.3 ESE 11.6 SE 0.0 0.1
02:10 4.6 93.0 1023.3 7.5 ESE 15.2 NE 0.0 0.1
02:15 4.6 92.9 1023.3 6.8 ESE 11.6 ENE 0.0 0.1
02:20 4.6 92.8 1023.3 7.9 SE 15.5 SSE 0.0 0.1
02:25 4.6 92.6 1023.2 6.9 E 19.1 E 0.0 0.1
02:30 4.6 92.4 1023.2 8.9 E 17.3 E 0.0 0.2
02:35 4.6 92.3 1023.2 8.8 E 15.2 ESE 0.0 0.1
02:40 4.6 92.3 1023.2 7.7 E 21.2 E 0.0 0.1
02:45 4.6 92.3 1023.1 12.3 E 21.5 E 0.0 0.1
02:50 4.6 92.4 1023.1 9.4 ESE 18.7 SE 0.0 0.1
02:55 4.5 92.6 1023.1 8.7 E 18.7 ESE 0.0 0.1
03:00 4.5 92.6 1023.1 10.4 ENE 16.2 ENE 0.0 0.1
03:05 4.5 92.6 1023.0 10.8 E 20.1 NE 0.0 0.1
03:10 4.5 92.6 1023.1 7.6 E 16.2 SE 0.0 0.1
03:15 4.5 92.6 1023.1 11.0 E 25.4 E 0.0 0.1
03:20 4.4 92.3 1023.0 10.6 E 20.1 E 0.0 0.1
03:25 4.4 92.0 1023.0 9.3 ESE 19.1 E 0.0 0.1
03:30 4.4 91.6 1023.0 8.9 E 18.0 ESE 0.0 0.1
03:35 4.4 91.2 1022.9 9.3 E 20.8 ENE 0.0 0.1
03:40 4.4 90.6 1023.0 8.6 ENE 22.2 ENE 0.0 0.1
03:45 4.4 90.4 1023.0 9.3 NE 18.4 NE 0.0 0.1
03:50 4.4 90.1 1022.9 10.7 NE 20.8 NE 0.0 0.1
03:55 4.4 89.7 1022.9 9.2 ENE 21.9 ENE 0.0 0.1
04:00 4.5 89.3 1023.0 5.9 NE 16.2 ENE 0.0 0.1
04:05 4.5 88.8 1023.0 8.9 NE 17.3 ENE 0.0 0.1
04:10 4.5 88.5 1023.0 5.5 NE 14.8 NNE 0.0 0.1
04:15 4.5 88.5 1023.0 4.8 NE 11.6 E 0.0 0.1
04:20 4.5 88.4 1023.0 5.2 N 10.9 N 0.0 0.1
04:25 4.5 88.4 1023.1 4.7 NNE 10.6 N 0.0 0.1
04:30 4.5 88.4 1023.0 5.2 NNE 10.2 NNE 0.0 0.1
04:35 4.6 87.7 1023.0 9.9 NNE 16.9 NE 0.0 0.1
04:40 4.6 87.4 1023.0 3.8 ENE 10.9 NNE 0.0 0.1
04:45 4.6 87.3 1023.0 4.9 NE 12.0 NE 0.0 0.1
04:50 4.5 87.0 1023.1 8.0 ENE 17.6 E 0.0 0.1
04:55 4.5 86.9 1023.1 8.4 ENE 15.2 NE 0.0 0.1
05:00 4.4 87.0 1023.1 5.9 ENE 12.0 NE 0.0 0.1
05:05 4.3 87.2 1023.1 5.2 E 9.9 E 0.0 0.1
05:10 4.2 87.3 1023.2 7.3 E 14.8 E 0.0 0.1
05:15 4.1 87.4 1023.1 9.6 E 17.3 E 0.0 0.2
05:20 4.1 86.8 1023.2 11.6 ESE 18.7 ESE 0.0 0.1
05:25 4.2 86.4 1023.1 9.3 ESE 17.6 ESE 0.0 0.1
05:30 4.3 86.1 1023.1 9.8 E 19.1 E 0.0 0.1
05:35 4.3 86.1 1023.1 10.0 E 21.9 ENE 0.0 0.1
05:40 4.4 85.9 1023.0 10.8 ENE 21.9 ENE 0.0 0.1
05:45 4.4 85.8 1023.0 13.0 ENE 27.2 E 0.0 0.1
05:50 4.4 85.7 1023.0 9.5 ENE 25.1 ENE 0.0 0.1
05:55 4.5 85.5 1023.1 10.0 ENE 16.2 ESE 0.0 0.1
06:00 4.6 85.5 1023.2 11.1 ENE 18.7 ENE 0.0 0.1
06:05 4.6 85.7 1023.1 8.5 ESE 17.6 E 0.0 0.1
06:10 4.6 86.1 1023.2 7.5 SE 12.4 ESE 0.0 0.2
06:15 4.6 86.1 1023.2 8.0 SSE 14.1 SE 0.0 0.3
06:20 4.6 86.1 1023.2 8.6 ESE 17.3 SE 0.0 0.7
06:25 4.6 86.0 1023.2 9.8 ESE 14.8 E 0.0 1.4
06:30 4.6 86.0 1023.2 12.2 ESE 17.6 ESE 0.0 2.3
06:35 4.7 85.8 1023.2 11.1 ESE 17.6 ESE 0.0 3.7
06:40 4.7 85.7 1023.2 12.3 E 17.3 E 0.0 5.9
06:45 4.8 85.6 1023.3 9.7 ESE 15.9 ESE 0.0 7.4
06:50 4.8 85.6 1023.3 12.0 ESE 18.0 ESE 0.0 12.0
06:55 4.8 85.2 1023.3 11.0 ESE 16.2 ESE 0.0 15.7
07:00 4.9 85.1 1023.4 9.6 ESE 16.9 ENE 0.0 22.3
07:05 4.9 85.0 1023.5 9.3 ESE 17.3 E 0.0 29.6
07:10 5.0 84.8 1023.5 10.4 ESE 18.7 SE 0.0 36.1
07:15 5.1 84.3 1023.5 8.4 ESE 21.9 ESE 0.0 41.0
07:20 5.1 84.4 1023.6 7.4 ESE 13.1 E 0.0 46.0
07:25 5.2 84.1 1023.5 8.8 E 17.6 ENE 0.0 51.4
07:30 5.2 83.9 1023.6 9.4 E 16.9 ENE 0.0 50.9
07:35 5.3 83.7 1023.6 6.4 E 14.5 E 0.0 73.8
07:40 5.4 83.7 1023.6 5.1 ESE 9.2 E 0.0 94.9
07:45 5.5 83.6 1023.6 5.0 E 10.2 E 0.0 92.3
07:50 5.6 81.9 1023.7 7.3 E 15.2 E 0.0 106.7
07:55 5.7 81.9 1023.7 7.6 SE 19.4 SSE 0.0 127.4
08:00 5.9 82.3 1023.7 7.4 ESE 14.8 SE 0.0 146.2
08:05 6.0 82.0 1023.7 6.0 SE 12.0 ESE 0.0 139.0
08:10 6.0 81.4 1023.7 5.9 SE 12.7 SE 0.0 148.1
08:15 6.2 81.8 1023.7 5.3 E 11.6 SE 0.0 137.7
08:20 6.2 81.6 1023.7 5.5 E 10.6 ENE 0.0 151.1
08:25 6.2 81.5 1023.6 6.6 ESE 12.7 ENE 0.0 171.7
08:30 6.3 81.0 1023.6 8.9 ESE 18.7 ESE 0.0 187.8
08:35 6.6 81.4 1023.7 7.4 E 14.1 E 0.0 274.2
08:40 6.7 80.3 1023.7 7.7 E 15.5 E 0.0 249.9
08:45 6.7 79.7 1023.7 7.8 ESE 14.5 ENE 0.0 252.2
08:50 6.8 79.2 1023.7 7.6 ESE 13.4 ESE 0.0 282.3
08:55 7.0 80.2 1023.8 6.9 E 14.5 ENE 0.0 306.7
09:00 6.9 80.5 1023.7 9.7 E 15.9 ENE 0.0 267.9
09:05 6.7 81.1 1023.7 11.4 E 17.6 E 0.0 270.1
09:10 6.7 81.9 1023.8 9.2 E 16.9 E 0.0 278.7
09:15 6.8 81.7 1023.7 9.6 ENE 18.4 ENE 0.0 259.4
09:20 6.8 82.2 1023.8 10.1 E 16.2 ESE 0.0 236.3
09:25 6.8 82.9 1023.8 6.5 E 15.2 ENE 0.0 183.3
09:30 6.8 82.7 1023.8 11.0 E 19.1 ESE 0.0 264.4
09:35 6.8 82.5 1023.8 10.1 E 18.7 ENE 0.0 225.4
09:40 6.9 82.9 1023.8 10.3 ESE 18.0 E 0.0 264.7
09:45 7.1 83.5 1023.8 6.2 ESE 12.4 SE 0.0 231.5
09:50 7.2 82.9 1023.8 5.4 ESE 10.6 ESE 0.0 184.5
09:55 7.3 83.1 1023.9 6.6 SE 14.5 ESE 0.0 185.0
10:00 7.1 82.5 1023.9 10.7 SE 21.2 SSE 0.0 184.2
10:05 6.9 83.6 1023.9 11.2 ESE 19.8 ESE 0.0 190.6
10:10 6.9 84.7 1023.8 8.7 SE 16.6 ESE 0.0 193.8
10:15 7.0 84.5 1023.9 9.1 SE 20.8 SE 0.0 187.2
10:20 7.0 84.6 1023.9 14.8 SE 27.2 SE 0.0 214.4
10:25 6.9 85.3 1023.8 12.3 SE 31.4 SSE 0.0 157.9
10:30 7.0 86.0 1023.9 9.0 ESE 17.3 ESE 0.0 236.0
10:35 7.1 85.3 1023.9 13.1 ESE 22.6 E 0.0 223.3
10:40 7.0 84.8 1023.9 9.7 E 22.6 SSE 0.0 148.8
10:45 7.0 85.3 1023.8 11.5 E 25.1 SE 0.0 229.2
10:50 7.3 86.3 1023.8 13.1 SE 24.3 E 0.0 560.0
10:55 7.6 84.0 1023.8 11.5 SE 20.5 S 0.0 234.6
11:00 7.5 84.4 1023.8 6.7 ESE 12.7 SE 0.0 282.4
11:05 7.8 84.0 1023.8 7.4 ESE 15.5 SE 0.0 190.5
11:10 7.5 82.0 1023.9 12.5 ESE 21.2 ESE 0.0 194.5
11:15 7.3 82.9 1023.8 11.9 ESE 20.5 ESE 0.0 216.9
11:20 7.1 83.4 1023.8 10.4 SE 19.1 E 0.0 152.3
11:25 7.1 84.5 1023.7 9.7 ESE 16.2 ESE 0.0 122.8
11:30 7.0 85.2 1023.8 8.7 ESE 15.9 SE 0.0 107.7
11:35 7.0 86.2 1023.8 6.4 ESE 13.8 E 0.0 115.2
11:40 7.1 86.6 1023.8 5.9 ESE 14.5 E 0.0 163.9
11:45 7.2 86.4 1023.7 7.9 ESE 16.9 SE 0.0 134.9
11:50 7.1 86.6 1023.7 7.2 E 20.1 ENE 0.0 195.7
11:55 7.3 86.5 1023.6 8.5 ESE 20.5 SE 0.0 192.3
12:00 7.3 86.5 1023.6 6.7 E 15.2 NE 0.0 136.1
12:05 7.2 86.5 1023.6 9.7 E 18.0 ENE 0.0 122.0
12:10 7.1 86.9 1023.6 7.9 E 15.5 E 0.0 109.1
12:15 7.2 87.0 1023.5 9.3 ESE 17.3 SE 0.0 145.0
12:20 7.3 86.0 1023.4 13.4 SE 24.3 SE 0.0 247.8
12:25 7.5 85.7 1023.4 11.3 SE 21.5 ESE 0.0 309.2
12:30 7.8 83.9 1023.3 15.5 SE 28.6 SSE 0.0 336.5
12:35 7.9 82.2 1023.2 19.1 SE 30.3 SSE 0.0 276.8
12:40 7.8 81.4 1023.2 18.1 SE 27.5 SSE 0.0 224.7
12:45 7.6 81.4 1023.2 20.5 ESE 27.5 ESE 0.0 192.1
12:50 7.5 81.6 1023.2 17.2 SE 26.8 ESE 0.0 171.4
12:55 7.6 82.4 1023.1 14.1 SE 25.4 SE 0.0 240.3
13:00 7.6 82.4 1023.1 16.8 SE 26.1 SE 0.0 220.7
13:05 7.6 82.0 1023.0 14.4 SE 22.9 SE 0.0 195.0
13:10 7.6 82.4 1023.0 15.6 SE 27.5 SE 0.0 230.3
13:15 7.9 81.8 1023.0 7.5 SSE 18.4 SSE 0.0 357.6
13:20 8.3 79.7 1023.0 10.2 SE 24.0 SSE 0.0 319.6
13:25 8.5 77.8 1023.0 14.0 SE 26.1 SSE 0.0 345.5
13:30 8.3 77.4 1023.0 15.2 SE 27.2 SE 0.0 275.6
Màxima 8.6 94.0 1023.9 20.5 ESE 31.4 SSE 0.0 560.0
Mínima 4.1 77.4 1022.9
Total 0.0